createdAt,value
2023-05-21T00:00:26.658Z,18.52
2023-05-21T00:02:53.226Z,18.56
2023-05-21T00:05:19.783Z,18.59
2023-05-21T00:07:46.329Z,18.58
2023-05-21T00:10:13.350Z,18.62
2023-05-21T00:12:40.059Z,18.62
2023-05-21T00:15:07.113Z,18.65
2023-05-21T00:17:33.675Z,18.65
2023-05-21T00:20:00.302Z,18.63
2023-05-21T00:22:27.040Z,18.66
2023-05-21T00:24:53.568Z,18.65
2023-05-21T00:27:20.108Z,18.72
2023-05-21T00:29:46.615Z,18.67
2023-05-21T00:32:13.238Z,18.58
2023-05-21T00:34:40.349Z,18.61
2023-05-21T00:37:06.892Z,18.63
2023-05-21T00:39:33.410Z,18.57
2023-05-21T00:41:59.986Z,18.34
2023-05-21T00:44:26.533Z,18.15
2023-05-21T00:46:53.086Z,17.92
2023-05-21T00:49:21.874Z,18.08
2023-05-21T00:51:52.227Z,18.10
2023-05-21T00:54:18.897Z,18.16
2023-05-21T00:56:47.277Z,18.19
2023-05-21T00:59:16.454Z,18.25
2023-05-21T01:01:46.082Z,18.32
2023-05-21T01:04:12.848Z,18.36
2023-05-21T01:06:39.436Z,18.37
2023-05-21T01:09:06.098Z,18.40
2023-05-21T01:11:44.580Z,18.29
2023-05-21T01:14:13.500Z,17.77
2023-05-21T01:16:44.000Z,17.38
2023-05-21T01:19:15.730Z,17.67
2023-05-21T01:21:46.194Z,17.74
2023-05-21T01:24:14.641Z,17.81
2023-05-21T01:26:41.463Z,17.88
2023-05-21T01:29:11.178Z,17.96
2023-05-21T01:31:52.144Z,17.99
2023-05-21T01:34:25.762Z,17.99
2023-05-21T01:37:17.334Z,18.01
2023-05-21T01:39:51.400Z,18.02
2023-05-21T01:42:19.521Z,18.05
2023-05-21T01:44:46.978Z,18.05
2023-05-21T01:47:16.412Z,18.02
2023-05-21T01:49:43.532Z,17.98
2023-05-21T01:52:10.081Z,17.95
2023-05-21T01:54:36.693Z,17.94
2023-05-21T01:57:03.362Z,17.97
2023-05-21T01:59:30.137Z,17.95
2023-05-21T02:01:56.691Z,17.92
2023-05-21T02:04:23.342Z,17.95
2023-05-21T02:06:49.863Z,17.95
2023-05-21T02:09:16.376Z,17.93
2023-05-21T02:11:42.896Z,17.83
2023-05-21T02:14:09.402Z,17.78
2023-05-21T02:16:37.604Z,17.71
2023-05-21T02:19:04.300Z,17.78
2023-05-21T02:21:30.841Z,17.75
2023-05-21T02:23:57.358Z,17.79
2023-05-21T02:26:23.919Z,17.77
2023-05-21T02:28:50.448Z,17.68
2023-05-21T02:31:16.948Z,17.61
2023-05-21T02:33:43.618Z,17.62
2023-05-21T02:36:10.133Z,17.53
2023-05-21T02:38:36.793Z,17.60
2023-05-21T02:41:03.348Z,17.61
2023-05-21T02:43:29.850Z,17.65
2023-05-21T02:45:56.408Z,17.64
2023-05-21T02:48:23.099Z,17.61
2023-05-21T02:50:49.618Z,17.53
2023-05-21T02:53:16.183Z,17.43
2023-05-21T02:55:42.736Z,17.37
2023-05-21T02:58:09.534Z,17.32
2023-05-21T03:00:36.068Z,17.29
2023-05-21T03:03:02.745Z,17.29
2023-05-21T03:05:29.342Z,17.33
2023-05-21T03:07:55.955Z,17.30
2023-05-21T03:10:22.510Z,17.26
2023-05-21T03:12:49.121Z,17.19
2023-05-21T03:15:15.849Z,17.13
2023-05-21T03:17:42.604Z,17.14
2023-05-21T03:20:09.606Z,17.21
2023-05-21T03:22:36.190Z,17.20
2023-05-21T03:25:02.716Z,17.24
2023-05-21T03:27:29.251Z,17.27
2023-05-21T03:29:55.904Z,17.30
2023-05-21T03:32:22.812Z,17.20
2023-05-21T03:34:49.408Z,17.21
2023-05-21T03:37:15.911Z,17.19
2023-05-21T03:39:42.413Z,17.27
2023-05-21T03:42:08.932Z,17.32
2023-05-21T03:44:35.439Z,17.33
2023-05-21T03:47:01.968Z,17.31
2023-05-21T03:49:28.499Z,17.23
2023-05-21T03:51:55.116Z,17.27
2023-05-21T03:54:21.676Z,17.26
2023-05-21T03:56:48.177Z,17.18
2023-05-21T03:59:14.681Z,17.07
2023-05-21T04:01:41.227Z,17.11
2023-05-21T04:04:07.964Z,17.01
2023-05-21T04:06:34.553Z,17.05
2023-05-21T04:09:01.128Z,16.96
2023-05-21T04:11:27.650Z,16.71
2023-05-21T04:13:54.206Z,16.66
2023-05-21T04:16:20.760Z,16.64
2023-05-21T04:18:47.534Z,16.47
2023-05-21T04:21:14.129Z,16.50
2023-05-21T04:23:40.632Z,16.58
2023-05-21T04:26:07.154Z,16.67
2023-05-21T04:28:33.709Z,16.77
2023-05-21T04:31:00.290Z,16.85
2023-05-21T04:33:26.854Z,16.96
2023-05-21T04:35:53.365Z,17.03
2023-05-21T04:38:20.013Z,17.08
2023-05-21T04:40:49.030Z,17.15
2023-05-21T04:43:15.592Z,17.19
2023-05-21T04:45:43.788Z,17.15
2023-05-21T04:48:10.276Z,17.20
2023-05-21T04:50:36.778Z,17.22
2023-05-21T04:53:03.310Z,17.31
2023-05-21T04:55:29.811Z,17.30
2023-05-21T04:57:56.371Z,17.41
2023-05-21T05:00:22.953Z,17.36
2023-05-21T05:02:49.552Z,17.38
2023-05-21T05:05:16.176Z,17.43
2023-05-21T05:07:43.808Z,17.47
2023-05-21T05:10:10.373Z,17.54
2023-05-21T05:12:36.905Z,17.63
2023-05-21T05:15:03.675Z,17.66
2023-05-21T05:17:30.282Z,17.79
2023-05-21T05:19:56.883Z,17.88
2023-05-21T05:22:23.422Z,17.90
2023-05-21T05:24:49.974Z,18.03
2023-05-21T05:27:16.849Z,18.08
2023-05-21T05:29:44.583Z,18.19
2023-05-21T05:32:11.154Z,18.30
2023-05-21T05:34:38.278Z,18.30
2023-05-21T05:37:05.072Z,18.27
2023-05-21T05:39:31.617Z,18.47
2023-05-21T05:41:58.139Z,18.50
2023-05-21T05:44:24.663Z,18.49
2023-05-21T05:46:51.196Z,18.61
2023-05-21T05:49:17.726Z,18.67
2023-05-21T05:51:44.314Z,18.74
2023-05-21T05:54:10.856Z,18.81
2023-05-21T05:56:37.400Z,18.85
2023-05-21T05:59:03.942Z,18.94
2023-05-21T06:01:30.464Z,18.99
2023-05-21T06:03:56.983Z,19.05
2023-05-21T06:06:23.594Z,19.09
2023-05-21T06:08:50.151Z,19.09
2023-05-21T06:11:16.649Z,19.09
2023-05-21T06:13:43.209Z,19.15
2023-05-21T06:16:09.886Z,19.23
2023-05-21T06:18:36.552Z,19.26
2023-05-21T06:21:03.261Z,19.30
2023-05-21T06:23:29.776Z,19.32
2023-05-21T06:25:56.310Z,19.36
2023-05-21T06:28:22.829Z,19.39
2023-05-21T06:30:49.335Z,19.47
2023-05-21T06:33:16.054Z,19.43
2023-05-21T06:35:42.596Z,19.32
2023-05-21T06:38:09.144Z,19.13
2023-05-21T06:40:35.661Z,19.19
2023-05-21T06:43:02.214Z,19.26
2023-05-21T06:45:28.849Z,19.28
2023-05-21T06:47:55.442Z,19.35
2023-05-21T06:50:21.953Z,19.42
2023-05-21T06:52:48.517Z,19.46
2023-05-21T06:55:15.026Z,19.42
2023-05-21T06:57:41.571Z,19.39
2023-05-21T07:00:08.600Z,19.63
2023-05-21T07:02:35.204Z,19.53
2023-05-21T07:05:02.085Z,19.56
2023-05-21T07:07:28.594Z,19.60
2023-05-21T07:09:55.204Z,19.50
2023-05-21T07:12:21.798Z,19.49
2023-05-21T07:14:48.492Z,19.41
2023-05-21T07:17:15.015Z,19.48
2023-05-21T07:19:41.567Z,19.40
2023-05-21T07:22:08.436Z,19.54
2023-05-21T07:24:34.941Z,19.42
2023-05-21T07:27:04.637Z,19.42
2023-05-21T07:29:35.341Z,19.45
2023-05-21T07:32:02.691Z,19.38
2023-05-21T07:34:29.900Z,19.47
2023-05-21T07:36:56.448Z,19.71
2023-05-21T07:39:23.023Z,19.33
2023-05-21T07:41:49.556Z,19.49
2023-05-21T07:44:16.066Z,19.61
2023-05-21T07:46:42.641Z,19.81
2023-05-21T07:49:09.187Z,19.79
2023-05-21T07:51:38.848Z,19.34
2023-05-21T07:54:05.409Z,19.70
2023-05-21T07:56:31.949Z,20.03
2023-05-21T07:58:58.495Z,20.14
2023-05-21T08:01:25.040Z,20.23
2023-05-21T08:03:52.449Z,20.28
2023-05-21T08:06:19.127Z,20.40
2023-05-21T08:08:45.687Z,20.61
2023-05-21T08:11:12.212Z,20.70
2023-05-21T08:13:38.784Z,20.80
2023-05-21T08:16:05.751Z,20.70
2023-05-21T08:18:32.429Z,20.78
2023-05-21T08:20:59.042Z,20.82
2023-05-21T08:23:25.667Z,20.99
2023-05-21T08:25:52.244Z,20.75
2023-05-21T08:28:18.916Z,20.78
2023-05-21T08:30:45.546Z,20.99
2023-05-21T08:33:12.136Z,20.85
2023-05-21T08:35:39.052Z,20.99
2023-05-21T08:38:05.692Z,21.19
2023-05-21T08:40:32.232Z,21.11
2023-05-21T08:42:58.824Z,21.27
2023-05-21T08:45:27.323Z,21.34
2023-05-21T08:47:58.299Z,21.23
2023-05-21T08:50:27.764Z,21.44
2023-05-21T08:52:54.302Z,21.55
2023-05-21T08:55:21.766Z,21.54
2023-05-21T08:57:48.828Z,21.52
2023-05-21T09:00:15.770Z,21.57
2023-05-21T09:02:42.484Z,21.58
2023-05-21T09:05:10.041Z,21.61
2023-05-21T09:07:43.426Z,21.62
2023-05-21T09:10:13.955Z,21.71
2023-05-21T09:12:40.526Z,21.74
2023-05-21T09:15:07.720Z,21.59
2023-05-21T09:17:34.476Z,21.64
2023-05-21T09:20:10.562Z,21.41
2023-05-21T09:22:40.962Z,21.44
2023-05-21T09:25:08.607Z,21.48
2023-05-21T09:27:35.168Z,21.50
2023-05-21T09:30:09.864Z,21.52
2023-05-21T09:32:36.575Z,21.69
2023-05-21T09:35:15.847Z,21.63
2023-05-21T09:37:43.907Z,21.53
2023-05-21T09:40:15.616Z,21.55
2023-05-21T09:42:53.660Z,21.36
2023-05-21T09:45:25.303Z,21.46
2023-05-21T09:47:53.414Z,21.30
2023-05-21T09:50:22.695Z,21.38
2023-05-21T09:52:50.638Z,21.32
2023-05-21T09:55:17.368Z,21.33
2023-05-21T09:57:48.075Z,21.25
2023-05-21T10:00:27.429Z,21.11
2023-05-21T10:02:56.493Z,21.31
2023-05-21T10:05:28.276Z,21.13
2023-05-21T10:08:00.830Z,21.22
2023-05-21T10:10:29.837Z,21.27
2023-05-21T10:13:03.973Z,21.41
2023-05-21T10:15:35.347Z,21.52
2023-05-21T10:18:03.655Z,21.48
2023-05-21T10:20:31.497Z,21.54
2023-05-21T10:22:58.916Z,21.34
2023-05-21T10:25:26.440Z,21.41
2023-05-21T10:27:55.632Z,21.27
2023-05-21T10:30:23.933Z,21.26
2023-05-21T10:32:51.033Z,21.44
2023-05-21T10:35:18.422Z,21.31
2023-05-21T10:37:46.090Z,21.42
2023-05-21T10:40:13.393Z,21.30
2023-05-21T10:43:16.961Z,21.24
2023-05-21T10:46:03.543Z,21.33
2023-05-21T10:48:52.577Z,21.46
2023-05-21T10:51:29.041Z,21.25
2023-05-21T10:54:08.664Z,21.16
2023-05-21T10:56:58.615Z,21.31
2023-05-21T10:59:45.428Z,21.44
2023-05-21T11:02:14.833Z,20.92
2023-05-21T11:04:44.732Z,20.87
2023-05-21T11:07:12.954Z,20.92
2023-05-21T11:09:39.527Z,21.12
2023-05-21T11:12:06.177Z,21.26
2023-05-21T11:14:40.624Z,21.44
2023-05-21T11:17:16.323Z,21.56
2023-05-21T11:19:45.038Z,21.79
2023-05-21T11:22:26.281Z,21.76
2023-05-21T11:24:55.160Z,21.71
2023-05-21T11:27:39.904Z,21.79
2023-05-21T11:30:17.920Z,21.76
2023-05-21T11:33:09.165Z,21.97
2023-05-21T11:35:44.964Z,22.09
2023-05-21T11:38:11.564Z,22.30
2023-05-21T11:40:38.604Z,22.27
2023-05-21T11:43:05.236Z,22.48
2023-05-21T11:45:32.744Z,22.77
2023-05-21T11:48:00.351Z,22.95
2023-05-21T11:50:27.183Z,22.88
2023-05-21T11:52:53.783Z,22.77
2023-05-21T11:55:24.223Z,22.79
2023-05-21T11:57:53.519Z,23.04
2023-05-21T12:00:20.039Z,22.94
2023-05-21T12:02:50.822Z,22.97
2023-05-21T12:05:17.546Z,23.23
2023-05-21T12:07:47.294Z,23.36
2023-05-21T12:10:13.838Z,23.41
2023-05-21T12:12:54.021Z,23.55
2023-05-21T12:15:27.606Z,23.64
2023-05-21T12:17:55.524Z,23.90
2023-05-21T12:20:22.377Z,23.96
2023-05-21T12:22:49.612Z,23.93
2023-05-21T12:25:21.133Z,24.02
2023-05-21T12:27:49.173Z,24.15
2023-05-21T12:30:16.245Z,24.03
2023-05-21T12:32:45.759Z,24.16
2023-05-21T12:35:24.033Z,24.17
2023-05-21T12:37:51.604Z,24.29
2023-05-21T12:40:18.877Z,24.46
2023-05-21T12:42:45.625Z,24.58
2023-05-21T12:45:12.635Z,24.47
2023-05-21T12:47:39.350Z,24.33
2023-05-21T12:50:10.050Z,24.53
2023-05-21T12:52:36.669Z,24.51
2023-05-21T12:55:04.697Z,24.42
2023-05-21T12:57:38.345Z,24.32
2023-05-21T13:00:06.893Z,24.41
2023-05-21T13:02:42.123Z,24.48
2023-05-21T13:05:11.440Z,24.51
2023-05-21T13:07:39.567Z,24.49
2023-05-21T13:10:07.240Z,24.65
2023-05-21T13:12:34.383Z,24.60
2023-05-21T13:15:02.387Z,24.76
2023-05-21T13:17:29.917Z,25.13
2023-05-21T13:20:10.961Z,25.59
2023-05-21T13:22:42.888Z,26.12
2023-05-21T13:25:11.265Z,26.61
2023-05-21T13:27:38.763Z,27.08
2023-05-21T13:30:06.372Z,27.44
2023-05-21T13:32:32.983Z,27.56
2023-05-21T13:34:59.540Z,27.89
2023-05-21T13:37:26.080Z,28.32
2023-05-21T13:39:52.685Z,28.56
2023-05-21T13:42:19.517Z,28.79
2023-05-21T13:44:49.498Z,28.92
2023-05-21T13:47:16.161Z,29.18
2023-05-21T13:49:42.915Z,29.40
2023-05-21T13:52:09.882Z,29.40
2023-05-21T13:54:36.657Z,29.53
2023-05-21T13:57:03.658Z,29.33
2023-05-21T13:59:32.638Z,29.36
2023-05-21T14:02:00.563Z,29.31
2023-05-21T14:04:27.366Z,29.21
2023-05-21T14:06:54.072Z,29.45
2023-05-21T14:09:20.781Z,29.38
2023-05-21T14:11:47.323Z,29.43
2023-05-21T14:14:13.873Z,29.56
2023-05-21T14:16:40.413Z,29.54
2023-05-21T14:19:06.924Z,29.14
2023-05-21T14:21:33.461Z,29.05
2023-05-21T14:23:59.971Z,28.89
2023-05-21T14:26:26.544Z,28.40
2023-05-21T14:28:53.070Z,28.31
2023-05-21T14:31:19.617Z,28.34
2023-05-21T14:33:46.130Z,28.05
2023-05-21T14:36:12.673Z,27.93
2023-05-21T14:38:39.288Z,27.92
2023-05-21T14:41:05.892Z,28.03
2023-05-21T14:43:33.076Z,28.25
2023-05-21T14:45:59.674Z,28.59
2023-05-21T14:48:26.238Z,29.00
2023-05-21T14:50:54.010Z,29.34
2023-05-21T14:53:20.794Z,29.46
2023-05-21T14:55:47.528Z,29.61
2023-05-21T14:58:14.120Z,29.84
2023-05-21T15:00:41.531Z,30.08
2023-05-21T15:03:08.192Z,30.11
2023-05-21T15:05:34.987Z,30.17
2023-05-21T15:08:01.679Z,30.14
2023-05-21T15:10:28.267Z,30.16
2023-05-21T15:12:54.985Z,30.48
2023-05-21T15:15:21.735Z,30.68
2023-05-21T15:17:49.908Z,30.86
2023-05-21T15:20:16.842Z,30.97
2023-05-21T15:22:43.439Z,31.02
2023-05-21T15:25:10.280Z,30.84
2023-05-21T15:27:36.869Z,30.88
2023-05-21T15:30:03.833Z,30.95
2023-05-21T15:32:31.105Z,30.94
2023-05-21T15:34:57.933Z,30.97
2023-05-21T15:37:24.676Z,30.90
2023-05-21T15:39:51.175Z,30.78
2023-05-21T15:42:17.710Z,30.58
2023-05-21T15:44:44.301Z,30.70
2023-05-21T15:47:10.847Z,30.96
2023-05-21T15:49:37.444Z,30.83
2023-05-21T15:52:04.405Z,30.64
2023-05-21T15:54:30.949Z,30.70
2023-05-21T15:56:57.798Z,30.55
2023-05-21T15:59:24.388Z,30.33
2023-05-21T16:01:51.345Z,30.47
2023-05-21T16:04:17.920Z,30.36
2023-05-21T16:06:44.461Z,30.28
2023-05-21T16:09:11.122Z,30.29
2023-05-21T16:11:37.696Z,30.02
2023-05-21T16:14:04.203Z,29.93
2023-05-21T16:16:30.754Z,30.08
2023-05-21T16:18:57.351Z,29.89
2023-05-21T16:21:23.911Z,30.17
2023-05-21T16:23:50.419Z,29.88
2023-05-21T16:26:16.991Z,29.33
2023-05-21T16:28:43.585Z,29.15
2023-05-21T16:31:10.113Z,28.95
2023-05-21T16:33:36.751Z,28.54
2023-05-21T16:36:03.387Z,28.80
2023-05-21T16:38:30.728Z,28.97
2023-05-21T16:40:57.288Z,29.30
2023-05-21T16:43:23.843Z,29.72
2023-05-21T16:45:50.378Z,30.03
2023-05-21T16:48:17.126Z,30.30
2023-05-21T16:50:43.672Z,30.51
2023-05-21T16:53:10.328Z,30.44
2023-05-21T16:55:38.040Z,30.86
2023-05-21T16:58:06.625Z,30.76
2023-05-21T17:00:34.146Z,30.68
2023-05-21T17:03:01.099Z,30.78
2023-05-21T17:05:27.710Z,30.65
2023-05-21T17:07:54.251Z,30.70
2023-05-21T17:10:23.777Z,30.72
2023-05-21T17:12:50.854Z,30.82
2023-05-21T17:15:17.425Z,30.92
2023-05-21T17:17:44.021Z,31.04
2023-05-21T17:20:11.214Z,31.08
2023-05-21T17:22:37.837Z,31.22
2023-05-21T17:25:04.641Z,31.49
2023-05-21T17:27:31.269Z,31.74
2023-05-21T17:29:57.787Z,31.86
2023-05-21T17:32:24.334Z,31.98
2023-05-21T17:34:50.869Z,32.05
2023-05-21T17:37:17.426Z,32.15
2023-05-21T17:39:43.936Z,32.06
2023-05-21T17:42:10.977Z,32.23
2023-05-21T17:44:37.624Z,32.14
2023-05-21T17:47:04.463Z,32.17
2023-05-21T17:49:31.126Z,32.17
2023-05-21T17:51:57.762Z,31.78
2023-05-21T17:54:24.390Z,31.39
2023-05-21T17:56:51.004Z,31.02
2023-05-21T17:59:17.564Z,30.64
2023-05-21T18:01:44.127Z,30.38
2023-05-21T18:04:10.681Z,30.16
2023-05-21T18:06:37.670Z,30.09
2023-05-21T18:09:04.258Z,29.90
2023-05-21T18:11:30.835Z,29.59
2023-05-21T18:13:57.376Z,29.33
2023-05-21T18:16:23.958Z,29.11
2023-05-21T18:18:50.560Z,28.90
2023-05-21T18:21:17.164Z,28.54
2023-05-21T18:23:43.692Z,28.26
2023-05-21T18:26:10.222Z,28.07
2023-05-21T18:28:36.882Z,27.84
2023-05-21T18:31:03.592Z,27.63
2023-05-21T18:33:30.668Z,27.33
2023-05-21T18:35:57.533Z,27.21
2023-05-21T18:38:24.781Z,27.02
2023-05-21T18:40:51.552Z,26.91
2023-05-21T18:43:18.450Z,26.81
2023-05-21T18:45:46.243Z,26.75
2023-05-21T18:48:12.889Z,26.66
2023-05-21T18:50:39.590Z,26.59
2023-05-21T18:53:06.236Z,26.43
2023-05-21T18:55:34.153Z,26.34
2023-05-21T18:58:00.746Z,26.28
2023-05-21T19:00:27.704Z,26.16
2023-05-21T19:02:55.675Z,26.05
2023-05-21T19:05:22.401Z,25.97
2023-05-21T19:07:49.063Z,25.85
2023-05-21T19:10:15.791Z,25.83
2023-05-21T19:12:43.262Z,25.75
2023-05-21T19:15:10.363Z,25.67
2023-05-21T19:17:38.185Z,25.58
2023-05-21T19:20:06.085Z,25.55
2023-05-21T19:22:32.750Z,25.47
2023-05-21T19:24:59.386Z,25.41
2023-05-21T19:27:26.559Z,25.35
2023-05-21T19:29:53.120Z,25.25
2023-05-21T19:32:19.736Z,25.31
2023-05-21T19:34:46.304Z,25.02
2023-05-21T19:37:12.802Z,24.62
2023-05-21T19:39:41.312Z,24.42
2023-05-21T19:42:09.312Z,24.18
2023-05-21T19:44:39.451Z,24.04
2023-05-21T19:47:06.351Z,23.68
2023-05-21T19:49:32.882Z,23.21
2023-05-21T19:51:59.530Z,22.93
2023-05-21T19:54:26.191Z,22.89
2023-05-21T19:56:52.767Z,22.90
2023-05-21T19:59:19.442Z,23.12
2023-05-21T20:01:46.100Z,23.27
2023-05-21T20:04:13.110Z,23.45
2023-05-21T20:06:39.764Z,23.56
2023-05-21T20:09:07.084Z,23.57
2023-05-21T20:11:34.453Z,23.67
2023-05-21T20:14:00.948Z,23.70
2023-05-21T20:16:28.165Z,23.77
2023-05-21T20:18:54.739Z,23.80
2023-05-21T20:21:21.381Z,23.80
2023-05-21T20:23:48.532Z,23.80
2023-05-21T20:26:16.175Z,23.81
2023-05-21T20:28:43.295Z,23.74
2023-05-21T20:31:09.898Z,23.34
2023-05-21T20:33:37.571Z,23.26
2023-05-21T20:36:06.798Z,23.41
2023-05-21T20:38:33.533Z,23.41
2023-05-21T20:41:00.423Z,23.47
2023-05-21T20:43:27.010Z,23.54
2023-05-21T20:45:53.669Z,23.38
2023-05-21T20:48:20.189Z,23.43
2023-05-21T20:50:46.729Z,23.48
2023-05-21T20:53:13.350Z,23.49
2023-05-21T20:55:39.846Z,23.37
2023-05-21T20:58:06.360Z,23.39
2023-05-21T21:00:32.894Z,23.35
2023-05-21T21:02:59.581Z,23.39
2023-05-21T21:05:26.702Z,23.40
2023-05-21T21:07:55.603Z,23.39
2023-05-21T21:10:22.796Z,23.43
2023-05-21T21:12:49.318Z,23.43
2023-05-21T21:15:15.889Z,23.41
2023-05-21T21:17:42.458Z,23.31
2023-05-21T21:20:09.251Z,23.45
2023-05-21T21:22:36.049Z,23.49
2023-05-21T21:25:02.750Z,23.55
2023-05-21T21:27:29.376Z,23.29
2023-05-21T21:29:55.982Z,23.24
2023-05-21T21:32:22.631Z,23.42
2023-05-21T21:34:49.259Z,23.02
2023-05-21T21:37:16.433Z,23.12
2023-05-21T21:39:43.073Z,23.14
2023-05-21T21:42:09.750Z,23.08
2023-05-21T21:44:36.324Z,22.86
2023-05-21T21:47:02.880Z,22.78
2023-05-21T21:49:29.546Z,22.66
2023-05-21T21:51:56.088Z,22.59
2023-05-21T21:54:22.739Z,22.61
2023-05-21T21:56:49.397Z,22.51
2023-05-21T21:59:15.962Z,22.14
2023-05-21T22:01:43.160Z,22.03
2023-05-21T22:04:09.816Z,22.10
2023-05-21T22:06:36.422Z,21.84
2023-05-21T22:09:03.023Z,21.87
2023-05-21T22:11:30.645Z,22.02
2023-05-21T22:13:57.322Z,22.29
2023-05-21T22:16:24.016Z,22.44
2023-05-21T22:18:50.727Z,22.24
2023-05-21T22:21:17.382Z,22.53
2023-05-21T22:23:44.127Z,22.68
2023-05-21T22:26:10.732Z,22.79
2023-05-21T22:28:37.430Z,22.80
2023-05-21T22:31:04.877Z,22.82
2023-05-21T22:33:31.497Z,22.85
2023-05-21T22:35:58.117Z,22.79
2023-05-21T22:38:25.081Z,22.68
2023-05-21T22:40:51.862Z,22.74
2023-05-21T22:43:18.502Z,22.70
2023-05-21T22:45:45.207Z,22.71
2023-05-21T22:48:11.883Z,22.66
2023-05-21T22:50:39.022Z,22.50
2023-05-21T22:53:06.897Z,22.54
2023-05-21T22:55:33.498Z,22.52
2023-05-21T22:58:00.177Z,22.56
2023-05-21T23:00:26.774Z,22.56
2023-05-21T23:02:54.537Z,22.61
2023-05-21T23:05:22.595Z,22.68
2023-05-21T23:07:49.600Z,22.70
2023-05-21T23:10:16.294Z,22.55
2023-05-21T23:12:43.044Z,22.52
2023-05-21T23:15:10.361Z,22.53
2023-05-21T23:17:37.952Z,22.54
2023-05-21T23:20:05.982Z,22.43
2023-05-21T23:22:32.733Z,21.95
2023-05-21T23:24:59.394Z,21.80
2023-05-21T23:27:25.934Z,21.46
2023-05-21T23:29:52.489Z,21.36
2023-05-21T23:32:19.467Z,21.15
2023-05-21T23:34:46.099Z,21.37
2023-05-21T23:37:12.692Z,21.27
2023-05-21T23:39:39.329Z,21.31
2023-05-21T23:42:06.344Z,21.31
2023-05-21T23:44:32.916Z,21.54
2023-05-21T23:46:59.660Z,21.59
2023-05-21T23:49:26.302Z,21.62
2023-05-21T23:51:54.414Z,21.51
2023-05-21T23:54:21.043Z,21.57
2023-05-21T23:56:47.609Z,21.60
2023-05-21T23:59:15.660Z,21.62
